Portada
METAR-TAF:

METAR-TAF

Aeropuertos :

Passo Rolle, Italia

latitud: 46-18N, longitud: 011-47E, altitud: 2004 m

Observación

El informe se hizo hace 33 minutos, a las 05:55 UTC
Viento 6 kt del sur
Temperatura 6°C
Humedad 93%
Presión 1009 hPa
Visibilidad: 0300 m
lluvia ligera, niebla

METAR: LIVR 070555Z 18006KT 0300 -RA FG VV/// 06/05 Q1009 RMK MON INVIS VIS MIN 0300

Hora: 08:28 (06:28 UTC)


TAF: falta

Observaciones y pronósticos meteorológicos de más de 4000 aeropuertos (mensajes METAR y TAF).

Los puntos amarillos y rojos representan las estaciones disponibles.

Ponga el ratón en el punto deseado para ver el nombre de la estación.

Haga clic para ver las observaciones y los pronósticos meteorológicos.

Para cambiar el mapa : haga clic en los botones verdes con una cruz de color negro para hacer un zoom, en el botón verde con un guión para alejar o en las flechas verdes para mapas adyacentes.


METAR-TAF: